Time;durP1;ratioP1;P1;durP2;ratioP2;P2;SDS_P1;SDS_P2;PMS_P1;PMS_P2;Temp;Humidity;BMP_temperature;BMP_pressure;BME280_temperature;BME280_humidity;BME280_pressure;Samples;Min_cycle;Max_cycle;Signal;HPM_P1;HPM_P2
2021/06/19 00:01:27;;;;;;;6.10;1.55;;;21.40;99.90;;;;;;5031410;28;20719;-79
2021/06/19 00:03:53;;;;;;;4.00;1.75;;;21.40;99.90;;;;;;5016292;28;20168;-81
2021/06/19 00:06:18;;;;;;;3.60;2.20;;;21.40;99.90;;;;;;5022914;28;20219;-78
2021/06/19 00:08:44;;;;;;;1.85;1.73;;;21.30;99.90;;;;;;5018214;28;20179;-79
2021/06/19 00:11:10;;;;;;;5.72;2.17;;;21.30;99.90;;;;;;5018113;28;20180;-79
2021/06/19 00:13:35;;;;;;;2.88;1.63;;;21.30;99.90;;;;;;5035761;28;20175;-79
2021/06/19 00:16:01;;;;;;;3.95;1.85;;;21.20;99.90;;;;;;5035970;28;20215;-80
2021/06/19 00:18:27;;;;;;;2.88;1.77;;;21.20;99.90;;;;;;5035852;28;20164;-80
2021/06/19 00:20:53;;;;;;;3.40;1.80;;;21.20;99.90;;;;;;5035544;28;20199;-80
2021/06/19 00:23:18;;;;;;;3.95;1.70;;;21.30;99.90;;;;;;5034609;28;20164;-81
2021/06/19 00:25:47;;;;;;;3.42;1.65;;;21.40;99.90;;;;;;5029388;28;20184;-80
2021/06/19 00:28:12;;;;;;;2.65;1.75;;;21.40;99.90;;;;;;5015841;28;20513;-80
2021/06/19 00:30:38;;;;;;;1.50;1.40;;;21.40;99.90;;;;;;5014482;28;20176;-80
2021/06/19 00:33:04;;;;;;;8.27;1.73;;;21.40;99.90;;;;;;5013265;28;20161;-80
2021/06/19 00:35:30;;;;;;;1.63;1.45;;;21.40;99.90;;;;;;5015655;28;20173;-79
2021/06/19 00:37:55;;;;;;;10.52;2.10;;;21.50;99.90;;;;;;5025103;28;20605;-81
2021/06/19 00:40:21;;;;;;;2.95;2.00;;;21.40;99.90;;;;;;5021627;28;20292;-80
2021/06/19 00:42:59;;;;;;;3.65;1.90;;;21.40;99.90;;;;;;5030615;28;20173;-80
2021/06/19 00:45:26;;;;;;;2.05;1.85;;;21.30;99.90;;;;;;5014010;28;20226;-81
2021/06/19 00:47:53;;;;;;;2.20;2.00;;;21.10;99.90;;;;;;5015252;28;20169;-80
2021/06/19 00:50:20;;;;;;;4.05;1.95;;;21.00;99.90;;;;;;5015575;28;20223;-80
2021/06/19 00:52:46;;;;;;;3.72;2.08;;;20.80;99.90;;;;;;5015281;28;20503;-80
2021/06/19 00:55:12;;;;;;;2.28;2.13;;;20.70;99.90;;;;;;5014057;28;20169;-81
2021/06/19 00:57:38;;;;;;;2.60;2.40;;;20.60;99.90;;;;;;5014054;28;20621;-80
2021/06/19 01:00:06;;;;;;;2.92;2.17;;;20.50;99.90;;;;;;5013808;28;20169;-80
2021/06/19 01:02:32;;;;;;;1.88;1.77;;;20.50;99.90;;;;;;5015065;28;20161;-80
2021/06/19 01:04:58;;;;;;;3.65;2.40;;;20.40;99.90;;;;;;5015416;28;20515;-80
2021/06/19 01:07:24;;;;;;;2.30;2.15;;;20.40;99.90;;;;;;5035226;28;20172;-80
2021/06/19 01:09:50;;;;;;;2.47;2.17;;;20.40;99.90;;;;;;5024984;28;20164;-81
2021/06/19 01:12:25;;;;;;;3.63;2.55;;;20.40;99.90;;;;;;5030136;28;20188;-80
2021/06/19 01:14:52;;;;;;;3.55;2.28;;;20.30;99.90;;;;;;5014968;28;20156;-80
2021/06/19 01:17:19;;;;;;;4.85;2.25;;;20.30;99.90;;;;;;5031558;28;20169;-81
2021/06/19 01:19:46;;;;;;;2.63;2.42;;;20.30;99.90;;;;;;5033529;28;20172;-81
2021/06/19 01:22:12;;;;;;;2.30;2.10;;;20.30;99.90;;;;;;5034133;28;20204;-80
2021/06/19 01:24:37;;;;;;;7.38;2.80;;;20.20;99.90;;;;;;5034884;28;20172;-80
2021/06/19 01:27:03;;;;;;;4.40;2.30;;;20.20;99.90;;;;;;5034485;28;20179;-81
2021/06/19 01:29:29;;;;;;;3.03;2.83;;;20.10;99.90;;;;;;5031400;28;20255;-80
2021/06/19 01:31:55;;;;;;;4.28;2.72;;;20.10;99.90;;;;;;5049717;28;20255;-81
2021/06/19 01:34:20;;;;;;;8.40;3.13;;;20.00;99.90;;;;;;5034543;28;20161;-80
2021/06/19 01:36:46;;;;;;;3.25;3.05;;;20.00;99.90;;;;;;5048757;28;20168;-81
2021/06/19 01:39:12;;;;;;;3.17;2.97;;;20.00;99.90;;;;;;5034347;28;20164;-80
2021/06/19 01:41:38;;;;;;;5.95;3.60;;;20.00;99.90;;;;;;5031040;28;20208;-80
2021/06/19 01:44:09;;;;;;;4.30;3.28;;;20.00;99.90;;;;;;5013927;28;20181;-81
2021/06/19 01:46:39;;;;;;;6.68;3.25;;;20.00;99.90;;;;;;5029609;28;20169;-80
2021/06/19 01:49:05;;;;;;;5.57;3.42;;;20.10;99.90;;;;;;5014779;28;20508;-80
2021/06/19 01:51:31;;;;;;;5.07;3.35;;;20.20;99.90;;;;;;5012852;28;20177;-80
2021/06/19 01:53:57;;;;;;;3.35;3.03;;;20.20;99.90;;;;;;5014297;28;20164;-80
2021/06/19 01:56:24;;;;;;;3.35;3.10;;;20.30;99.90;;;;;;5014362;28;20215;-81
2021/06/19 01:58:51;;;;;;;3.47;2.88;;;20.30;99.90;;;;;;5014238;28;20192;-80
2021/06/19 02:01:16;;;;;;;7.53;2.80;;;20.40;99.90;;;;;;5012668;28;20203;-80
2021/06/19 02:03:44;;;;;;;2.75;2.55;;;20.40;99.90;;;;;;5012755;28;20160;-81
2021/06/19 02:06:11;;;;;;;3.10;2.80;;;20.30;99.90;;;;;;5012744;28;20169;-80
2021/06/19 02:08:38;;;;;;;2.90;2.70;;;20.30;99.90;;;;;;5031004;28;20173;-80
2021/06/19 02:11:05;;;;;;;2.50;2.30;;;20.30;99.90;;;;;;5012582;28;20185;-80
2021/06/19 02:13:32;;;;;;;4.28;2.45;;;20.20;99.90;;;;;;5012544;28;20168;-80
2021/06/19 02:15:58;;;;;;;2.75;2.55;;;20.20;99.90;;;;;;5014082;28;20219;-80
2021/06/19 02:18:25;;;;;;;3.00;2.80;;;20.30;99.90;;;;;;5013803;28;20175;-80
2021/06/19 02:20:54;;;;;;;2.75;2.55;;;20.30;99.90;;;;;;5013792;28;20214;-80
2021/06/19 02:23:24;;;;;;;2.70;2.60;;;20.30;99.90;;;;;;5013801;28;20271;-80
2021/06/19 02:25:52;;;;;;;3.80;2.63;;;20.40;99.90;;;;;;5013732;28;20605;-80
2021/06/19 02:28:20;;;;;;;4.40;2.97;;;20.50;99.90;;;;;;5013906;28;20203;-80
2021/06/19 02:30:49;;;;;;;3.08;2.88;;;20.50;99.90;;;;;;5013823;28;20176;-80
2021/06/19 02:33:16;;;;;;;3.53;3.30;;;20.30;99.90;;;;;;5013580;28;20160;-81
2021/06/19 02:35:44;;;;;;;4.75;3.63;;;20.30;99.90;;;;;;5013710;28;20157;-81
2021/06/19 02:38:10;;;;;;;4.97;4.53;;;20.20;99.90;;;;;;5014906;28;20341;-80
2021/06/19 02:40:38;;;;;;;4.35;4.03;;;20.10;99.90;;;;;;5013206;28;20283;-80
2021/06/19 02:43:05;;;;;;;5.63;4.80;;;20.00;99.90;;;;;;5012421;28;20625;-80
2021/06/19 02:45:30;;;;;;;8.13;5.50;;;19.80;99.90;;;;;;5012323;28;20524;-81
2021/06/19 02:47:58;;;;;;;6.82;4.55;;;19.80;99.90;;;;;;5012143;28;20171;-80
2021/06/19 02:50:26;;;;;;;4.68;4.30;;;19.60;99.90;;;;;;5013503;28;20684;-80
2021/06/19 02:52:54;;;;;;;6.65;4.70;;;19.60;99.90;;;;;;5012078;28;20181;-80
2021/06/19 02:55:26;;;;;;;9.13;4.88;;;19.50;99.90;;;;;;5014801;28;20187;-80
2021/06/19 02:57:52;;;;;;;5.57;4.68;;;19.50;99.90;;;;;;5016552;28;20263;-80
2021/06/19 03:00:19;;;;;;;6.30;5.70;;;19.50;99.90;;;;;;5017664;28;20553;-80
2021/06/19 03:02:46;;;;;;;9.00;4.70;;;19.40;99.90;;;;;;5037148;28;20636;-80
2021/06/19 03:05:14;;;;;;;6.90;5.78;;;19.40;99.90;;;;;;5037132;28;20168;-81
2021/06/19 03:07:40;;;;;;;6.07;4.97;;;19.40;99.90;;;;;;5023002;28;20200;-80
2021/06/19 03:10:08;;;;;;;5.57;5.07;;;19.40;99.90;;;;;;5017219;28;20195;-81
2021/06/19 03:12:35;;;;;;;6.53;4.75;;;19.40;99.90;;;;;;5015937;28;20278;-81
2021/06/19 03:15:00;;;;;;;5.55;5.03;;;19.40;99.90;;;;;;5015986;28;20165;-81
2021/06/19 03:17:26;;;;;;;5.38;4.88;;;19.40;99.90;;;;;;5015904;28;20169;-81
2021/06/19 03:19:52;;;;;;;5.78;5.28;;;19.50;99.90;;;;;;5015786;28;20256;-81
2021/06/19 03:22:18;;;;;;;6.60;5.65;;;19.50;99.90;;;;;;5015773;28;20661;-81
2021/06/19 03:24:44;;;;;;;8.50;5.88;;;19.60;99.90;;;;;;5017163;28;20635;-80
2021/06/19 03:27:12;;;;;;;8.07;6.57;;;19.70;99.90;;;;;;5017142;28;20207;-80
2021/06/19 03:29:39;;;;;;;9.02;6.50;;;19.70;99.90;;;;;;5015531;28;20721;-81
2021/06/19 03:32:05;;;;;;;7.72;6.95;;;19.80;99.90;;;;;;5015641;28;20161;-81
2021/06/19 03:34:32;;;;;;;8.90;8.10;;;20.00;99.90;;;;;;5015525;28;20167;-81
2021/06/19 03:36:59;;;;;;;9.48;8.45;;;20.10;99.90;;;;;;5023959;28;20571;-81
2021/06/19 03:39:31;;;;;;;9.85;8.88;;;20.20;99.90;;;;;;5035130;28;20267;-81
2021/06/19 03:41:57;;;;;;;10.52;9.73;;;20.20;99.90;;;;;;5051457;28;20295;-81
2021/06/19 03:44:23;;;;;;;10.57;9.70;;;20.20;99.90;;;;;;5036537;28;20196;-81
2021/06/19 03:46:49;;;;;;;12.52;9.25;;;20.30;99.90;;;;;;5036099;28;20203;-80
2021/06/19 03:49:15;;;;;;;12.30;11.10;;;20.30;99.90;;;;;;5036257;28;20207;-80
2021/06/19 03:51:41;;;;;;;10.35;9.45;;;20.30;99.90;;;;;;5019135;28;20251;-80
2021/06/19 03:54:07;;;;;;;10.95;9.85;;;20.20;99.90;;;;;;5051972;28;20183;-80
2021/06/19 03:56:33;;;;;;;9.35;8.43;;;20.20;99.90;;;;;;5030782;28;20226;-81
2021/06/19 03:58:59;;;;;;;10.73;9.82;;;20.30;99.90;;;;;;4999089;28;20164;-81
2021/06/19 04:01:25;;;;;;;10.10;9.30;;;20.20;99.90;;;;;;5015123;28;20250;-80
2021/06/19 04:03:51;;;;;;;10.73;9.75;;;20.20;99.90;;;;;;4998534;28;20260;-81
2021/06/19 04:06:16;;;;;;;12.18;10.35;;;20.00;99.90;;;;;;5015775;28;20172;-81
2021/06/19 04:08:42;;;;;;;10.23;9.27;;;20.00;99.90;;;;;;5035935;28;20168;-81
2021/06/19 04:11:08;;;;;;;10.13;9.32;;;20.00;99.90;;;;;;5034535;28;20211;-80
2021/06/19 04:13:33;;;;;;;10.20;9.40;;;19.90;99.90;;;;;;5035955;28;20261;-81
2021/06/19 04:15:59;;;;;;;9.25;8.50;;;19.80;99.90;;;;;;5049347;28;20205;-81
2021/06/19 04:18:25;;;;;;;9.95;9.15;;;19.80;99.90;;;;;;5047869;28;20194;-80
2021/06/19 04:20:51;;;;;;;13.60;10.00;;;19.70;99.90;;;;;;5047756;28;20201;-80
2021/06/19 04:23:16;;;;;;;10.23;9.43;;;19.70;99.90;;;;;;5031080;28;20259;-80
2021/06/19 04:25:42;;;;;;;9.90;9.10;;;19.80;99.90;;;;;;5016100;28;20160;-81
2021/06/19 04:28:08;;;;;;;9.25;8.40;;;19.80;99.90;;;;;;5014621;28;20177;-80
2021/06/19 04:30:34;;;;;;;9.93;8.20;;;19.90;99.90;;;;;;5015778;28;20179;-80
2021/06/19 04:33:00;;;;;;;8.65;8.05;;;20.00;99.90;;;;;;5015692;28;20223;-80
2021/06/19 04:35:27;;;;;;;8.57;7.97;;;20.10;99.90;;;;;;5015848;28;20610;-80
2021/06/19 04:37:53;;;;;;;8.38;7.75;;;20.10;99.90;;;;;;5043799;28;20230;-80
2021/06/19 04:43:11;;;;;;;8.77;7.88;;;20.10;99.90;;;;;;5015277;28;20227;-80
2021/06/19 04:45:35;;;;;;;9.38;7.70;;;20.10;99.90;;;;;;5015305;28;20173;-80
2021/06/19 04:48:02;;;;;;;9.10;8.27;;;20.10;99.90;;;;;;5015625;28;20197;-80
2021/06/19 04:50:29;;;;;;;8.32;7.65;;;20.10;99.90;;;;;;5014235;28;20610;-80
2021/06/19 04:52:56;;;;;;;9.25;8.40;;;20.00;99.90;;;;;;5015336;28;20164;-79
2021/06/19 04:55:21;;;;;;;10.38;9.15;;;20.00;99.90;;;;;;5015229;28;20540;-79
2021/06/19 04:57:54;;;;;;;9.75;8.85;;;19.90;99.90;;;;;;5027133;28;20167;-80
2021/06/19 05:00:20;;;;;;;15.82;10.82;;;19.80;99.90;;;;;;5033546;28;20211;-80
2021/06/19 05:02:47;;;;;;;11.18;10.30;;;19.80;99.90;;;;;;5035135;28;20184;-80
2021/06/19 05:05:13;;;;;;;10.43;9.48;;;19.80;99.90;;;;;;5033885;28;20171;-79
2021/06/19 05:07:39;;;;;;;10.00;9.27;;;19.80;99.90;;;;;;5020041;28;20169;-79
2021/06/19 05:10:07;;;;;;;9.43;8.65;;;19.80;99.90;;;;;;5015098;28;20540;-79
2021/06/19 05:12:35;;;;;;;14.13;8.73;;;19.80;99.90;;;;;;5013344;28;20192;-79
2021/06/19 05:15:05;;;;;;;9.23;8.43;;;19.80;99.90;;;;;;5015138;28;20200;-80
2021/06/19 05:17:31;;;;;;;10.60;9.50;;;19.90;99.90;;;;;;4996899;28;20169;-79
2021/06/19 05:19:57;;;;;;;10.52;9.43;;;20.00;99.90;;;;;;5013546;28;20618;-80
2021/06/19 05:22:24;;;;;;;8.80;8.20;;;20.20;99.90;;;;;;5066256;28;20700;-80
2021/06/19 05:24:50;;;;;;;15.13;8.40;;;20.40;99.90;;;;;;5033230;28;20175;-79
2021/06/19 05:27:16;;;;;;;8.82;8.20;;;20.60;99.90;;;;;;5033059;28;20171;-79
2021/06/19 05:29:42;;;;;;;9.80;8.20;;;20.70;99.90;;;;;;5034615;28;20167;-79
2021/06/19 05:32:08;;;;;;;8.25;7.50;;;20.70;99.90;;;;;;5050005;28;20175;-79
2021/06/19 05:34:35;;;;;;;7.53;6.93;;;20.90;99.90;;;;;;5034324;28;20521;-79
2021/06/19 05:37:00;;;;;;;6.88;6.28;;;20.90;99.90;;;;;;5041965;28;20180;-79
2021/06/19 05:39:26;;;;;;;7.75;7.15;;;20.90;99.90;;;;;;5033028;28;20702;-79
2021/06/19 05:41:52;;;;;;;7.93;7.22;;;20.80;99.90;;;;;;5034409;28;20290;-79
2021/06/19 05:44:17;;;;;;;9.88;7.35;;;20.90;99.90;;;;;;5034448;28;20235;-79
2021/06/19 05:46:43;;;;;;;8.23;7.05;;;21.00;99.90;;;;;;5034261;28;20182;-79
2021/06/19 05:49:09;;;;;;;7.65;6.97;;;20.80;99.90;;;;;;5032824;28;20168;-79
2021/06/19 05:51:35;;;;;;;8.13;7.50;;;20.70;99.90;;;;;;5032865;28;20207;-79
2021/06/19 05:54:02;;;;;;;7.97;7.00;;;20.50;99.90;;;;;;5049565;28;20175;-79
2021/06/19 05:56:29;;;;;;;7.18;6.57;;;20.60;99.90;;;;;;5032698;28;20168;-79
2021/06/19 05:58:55;;;;;;;8.07;7.53;;;20.70;99.90;;;;;;5032552;28;20175;-80
2021/06/19 06:01:20;;;;;;;8.52;7.72;;;20.90;99.90;;;;;;5033935;28;20207;-80
2021/06/19 06:03:48;;;;;;;7.85;7.15;;;21.00;99.90;;;;;;5033908;28;20270;-79
2021/06/19 06:06:14;;;;;;;6.93;6.35;;;21.10;99.90;;;;;;5026443;28;20251;-79
2021/06/19 06:08:40;;;;;;;6.82;5.97;;;21.00;99.90;;;;;;5033356;28;20199;-79
2021/06/19 06:11:06;;;;;;;6.03;5.63;;;20.80;99.90;;;;;;5048985;28;20184;-79
2021/06/19 06:13:31;;;;;;;6.38;5.78;;;20.70;99.90;;;;;;5048996;28;20703;-80
2021/06/19 06:15:57;;;;;;;5.80;5.18;;;20.80;99.90;;;;;;5032943;28;20179;-79
2021/06/19 06:18:23;;;;;;;8.48;5.57;;;20.80;99.90;;;;;;5033537;28;20164;-79
2021/06/19 06:20:48;;;;;;;4.80;4.35;;;20.70;99.90;;;;;;5033793;28;20196;-79
2021/06/19 06:23:14;;;;;;;5.20;4.70;;;20.60;99.90;;;;;;5033486;28;20605;-79
2021/06/19 06:25:41;;;;;;;8.25;5.07;;;20.60;99.90;;;;;;5032439;28;20168;-79
2021/06/19 06:28:06;;;;;;;7.70;5.30;;;20.80;99.90;;;;;;5049014;28;20160;-79
2021/06/19 06:30:32;;;;;;;5.00;4.60;;;20.90;99.90;;;;;;5048582;28;20187;-80
2021/06/19 06:32:58;;;;;;;6.97;4.57;;;20.90;99.90;;;;;;5032234;28;20164;-79
2021/06/19 06:35:23;;;;;;;6.90;5.03;;;20.90;99.90;;;;;;5045200;28;20179;-79
2021/06/19 06:37:49;;;;;;;8.00;5.13;;;21.10;99.90;;;;;;5026836;28;20172;-79
2021/06/19 06:40:15;;;;;;;6.38;4.80;;;21.30;99.90;;;;;;5048496;28;20178;-78
2021/06/19 06:42:41;;;;;;;5.45;4.95;;;21.40;99.90;;;;;;5033569;28;20196;-79
2021/06/19 06:45:12;;;;;;;6.18;5.22;;;21.40;99.90;;;;;;5032900;28;20226;-79
2021/06/19 06:47:39;;;;;;;7.85;5.80;;;21.50;99.90;;;;;;5048812;28;20164;-79
2021/06/19 06:50:07;;;;;;;5.57;4.82;;;21.80;99.90;;;;;;5031607;28;20200;-79
2021/06/19 06:52:33;;;;;;;4.90;4.50;;;22.00;99.90;;;;;;5031707;28;20500;-80
2021/06/19 06:54:59;;;;;;;8.00;5.28;;;21.90;99.90;;;;;;5032071;28;20168;-80
2021/06/19 06:57:25;;;;;;;5.90;5.30;;;21.80;99.90;;;;;;5033173;28;20247;-79
2021/06/19 06:59:51;;;;;;;5.20;4.68;;;21.60;99.90;;;;;;5031783;28;20328;-79
2021/06/19 07:02:16;;;;;;;13.77;5.00;;;21.40;99.90;;;;;;5033162;28;20652;-79
2021/06/19 07:04:42;;;;;;;4.60;4.20;;;21.40;99.90;;;;;;5033163;28;20195;-79
2021/06/19 07:07:08;;;;;;;4.95;4.43;;;21.50;99.90;;;;;;5017888;28;20371;-79
2021/06/19 07:09:33;;;;;;;5.18;4.25;;;21.50;99.90;;;;;;5012139;28;20175;-80
2021/06/19 07:11:59;;;;;;;4.13;3.83;;;21.40;99.90;;;;;;5013150;28;20630;-79
2021/06/19 07:14:25;;;;;;;5.32;4.85;;;21.40;99.90;;;;;;5013298;28;20614;-78
2021/06/19 07:16:50;;;;;;;5.03;4.63;;;21.60;99.90;;;;;;5028416;28;20177;-78
2021/06/19 07:19:16;;;;;;;6.13;3.95;;;21.80;99.90;;;;;;5013298;28;20165;-78
2021/06/19 07:21:42;;;;;;;4.67;4.23;;;22.00;99.90;;;;;;5009771;28;20456;-79
2021/06/19 07:24:07;;;;;;;8.27;5.32;;;22.10;99.90;;;;;;5012020;28;20527;-80
2021/06/19 07:26:33;;;;;;;5.43;4.90;;;22.30;99.90;;;;;;5013490;28;20165;-79
2021/06/19 07:28:59;;;;;;;5.10;4.68;;;22.50;99.90;;;;;;5011718;28;20521;-78
2021/06/19 07:31:25;;;;;;;5.60;5.00;;;22.50;99.90;;;;;;5045129;28;20234;-80
2021/06/19 07:33:51;;;;;;;5.40;5.00;;;22.60;99.90;;;;;;5044900;28;20177;-79
2021/06/19 07:36:17;;;;;;;8.68;5.03;;;22.60;99.90;;;;;;5013550;28;20502;-79
2021/06/19 07:38:43;;;;;;;7.18;3.90;;;22.60;99.90;;;;;;5032834;28;20176;-79
2021/06/19 07:41:08;;;;;;;6.13;5.63;;;22.70;99.90;;;;;;5022266;28;20216;-79
2021/06/19 07:43:34;;;;;;;6.07;5.60;;;22.80;99.90;;;;;;5016949;28;20168;-80
2021/06/19 07:46:01;;;;;;;14.38;5.53;;;22.70;99.90;;;;;;5015498;28;20219;-79
2021/06/19 07:48:27;;;;;;;7.65;4.78;;;22.80;99.90;;;;;;5015292;28;20171;-78
2021/06/19 07:50:54;;;;;;;5.60;5.10;;;22.90;99.90;;;;;;5015089;28;20179;-78
2021/06/19 07:53:19;;;;;;;7.10;5.53;;;23.00;99.90;;;;;;5016891;28;20160;-78
2021/06/19 07:55:45;;;;;;;6.43;5.85;;;22.80;99.90;;;;;;4998739;28;20626;-78
2021/06/19 07:58:13;;;;;;;6.38;5.97;;;22.80;99.90;;;;;;5015391;28;20165;-77
2021/06/19 08:00:39;;;;;;;7.05;6.18;;;22.80;99.90;;;;;;5016314;28;20279;-77
2021/06/19 08:03:06;;;;;;;6.45;5.85;;;22.70;99.90;;;;;;5015423;28;20193;-77
2021/06/19 08:05:32;;;;;;;7.53;5.60;;;22.60;99.90;;;;;;5016048;28;20218;-78
2021/06/19 08:07:57;;;;;;;7.55;6.28;;;22.30;99.90;;;;;;5015719;28;20176;-79
2021/06/19 08:10:25;;;;;;;6.68;6.05;;;22.20;99.90;;;;;;5016143;28;20573;-78
2021/06/19 08:12:50;;;;;;;7.40;6.70;;;22.20;99.90;;;;;;5016189;28;20181;-78
2021/06/19 08:15:17;;;;;;;8.43;7.80;;;22.30;99.90;;;;;;5014813;28;20188;-78
2021/06/19 08:17:42;;;;;;;13.45;9.52;;;22.60;99.90;;;;;;5031129;28;20223;-79
2021/06/19 08:20:09;;;;;;;10.30;9.48;;;23.00;99.90;;;;;;5015845;28;20168;-79
2021/06/19 08:22:34;;;;;;;11.15;10.35;;;23.20;99.90;;;;;;5015790;28;20212;-78
2021/06/19 08:25:00;;;;;;;10.80;9.85;;;23.00;99.90;;;;;;5031140;28;20264;-78
2021/06/19 08:27:26;;;;;;;12.77;9.40;;;22.80;99.90;;;;;;5015447;28;20172;-78
2021/06/19 08:29:55;;;;;;;25.85;12.30;;;22.70;99.90;;;;;;5015549;28;20176;-78
2021/06/19 08:32:21;;;;;;;12.73;9.25;;;22.90;99.90;;;;;;5015576;28;20165;-78
2021/06/19 08:34:48;;;;;;;9.93;8.55;;;22.90;99.90;;;;;;5016997;28;20219;-78
2021/06/19 08:37:14;;;;;;;10.25;9.15;;;23.10;99.90;;;;;;5015439;28;20565;-79
2021/06/19 08:39:40;;;;;;;10.55;8.23;;;23.10;99.90;;;;;;5014416;28;20193;-79
2021/06/19 08:42:06;;;;;;;9.95;7.93;;;23.10;99.90;;;;;;5015486;28;20255;-79
2021/06/19 08:44:32;;;;;;;8.80;7.72;;;23.20;99.90;;;;;;5013718;28;20168;-78
2021/06/19 08:46:58;;;;;;;10.45;7.68;;;23.20;99.90;;;;;;5014149;28;20617;-79
2021/06/19 08:49:26;;;;;;;20.00;9.43;;;23.00;99.90;;;;;;5030804;28;20176;-79
2021/06/19 08:51:53;;;;;;;14.93;8.32;;;23.00;99.90;;;;;;5019004;28;20171;-79
2021/06/19 08:54:20;;;;;;;17.17;8.45;;;22.80;99.90;;;;;;5033113;28;20182;-79
2021/06/19 08:56:46;;;;;;;12.45;8.18;;;22.70;99.90;;;;;;5026171;28;20201;-81
2021/06/19 08:59:13;;;;;;;7.13;6.53;;;22.90;99.90;;;;;;5014627;28;20169;-81
2021/06/19 09:01:39;;;;;;;9.00;7.70;;;23.30;99.90;;;;;;5013772;28;20275;-80
2021/06/19 09:04:07;;;;;;;7.72;6.57;;;23.40;99.90;;;;;;5015105;28;20614;-80
2021/06/19 09:06:40;;;;;;;9.43;7.40;;;23.80;99.90;;;;;;5014136;28;20231;-80
2021/06/19 09:09:06;;;;;;;13.65;8.43;;;23.90;99.90;;;;;;5015236;28;20172;-80
2021/06/19 09:11:33;;;;;;;9.40;8.57;;;23.80;99.90;;;;;;5015092;28;20184;-80
2021/06/19 09:14:04;;;;;;;16.52;8.82;;;23.60;99.90;;;;;;5014789;28;20247;-79
2021/06/19 09:16:30;;;;;;;8.85;7.63;;;23.70;99.90;;;;;;5014948;28;20215;-80
2021/06/19 09:18:56;;;;;;;8.70;7.60;;;23.60;99.90;;;;;;4997318;28;20688;-79
2021/06/19 09:21:34;;;;;;;13.77;9.23;;;23.50;99.90;;;;;;5013501;28;20701;-80
2021/06/19 09:24:01;;;;;;;9.43;8.38;;;23.70;99.90;;;;;;5046334;28;20207;-80
2021/06/19 09:26:32;;;;;;;10.80;8.10;;;24.00;99.90;;;;;;5028307;28;20268;-81
2021/06/19 09:29:09;;;;;;;8.40;7.30;;;24.10;99.90;;;;;;4993763;28;20205;-80
2021/06/19 09:31:39;;;;;;;8.90;8.10;;;24.30;99.90;;;;;;4995269;28;20181;-81
2021/06/19 09:34:08;;;;;;;9.82;7.57;;;24.20;99.90;;;;;;5011756;28;20172;-80
2021/06/19 09:36:38;;;;;;;10.38;7.32;;;24.50;99.90;;;;;;5043438;28;20478;-80
2021/06/19 09:39:06;;;;;;;8.18;6.90;;;24.80;99.90;;;;;;5010954;28;20176;-82
2021/06/19 09:41:43;;;;;;;7.68;6.90;;;24.80;99.90;;;;;;5009898;28;20270;-78
2021/06/19 09:44:10;;;;;;;8.57;7.20;;;24.80;99.90;;;;;;5013357;28;20212;-78
2021/06/19 09:46:36;;;;;;;8.10;7.10;;;24.70;99.90;;;;;;5012845;28;20177;-79
2021/06/19 09:49:16;;;;;;;9.68;6.43;;;24.80;99.90;;;;;;5012979;28;20246;-83
2021/06/19 09:51:51;;;;;;;11.70;7.00;;;24.70;99.90;;;;;;5018839;28;20633;-80
2021/06/19 09:54:19;;;;;;;16.20;7.10;;;24.50;99.90;;;;;;5027007;28;20675;-80
2021/06/19 09:56:47;;;;;;;18.98;8.48;;;24.30;99.90;;;;;;5012480;28;20232;-79
2021/06/19 09:59:35;;;;;;;8.18;7.00;;;24.40;99.90;;;;;;5014483;28;20177;-85
2021/06/19 10:02:03;;;;;;;8.80;5.95;;;24.60;99.90;;;;;;5011642;28;20207;-85
2021/06/19 10:04:30;;;;;;;6.13;5.60;;;25.10;99.90;;;;;;5011208;28;20183;-84
2021/06/19 10:06:57;;;;;;;8.88;5.32;;;25.60;99.90;;;;;;5012523;28;20180;-84
2021/06/19 10:09:23;;;;;;;6.35;5.00;;;25.90;99.90;;;;;;5045908;28;20168;-84
2021/06/19 10:11:54;;;;;;;6.35;5.35;;;26.00;99.90;;;;;;5013358;28;20246;-83
2021/06/19 10:14:23;;;;;;;6.38;5.75;;;26.00;99.90;;;;;;5013178;28;20519;-83
2021/06/19 10:16:53;;;;;;;8.02;5.40;;;25.60;99.90;;;;;;5012018;28;20256;-84
2021/06/19 10:19:23;;;;;;;7.53;4.90;;;25.50;99.90;;;;;;5043346;28;20188;-84
2021/06/19 10:21:51;;;;;;;5.50;4.70;;;25.30;99.90;;;;;;5014304;28;20204;-85
2021/06/19 10:24:18;;;;;;;5.93;5.32;;;25.30;99.90;;;;;;5008148;28;20180;-78
2021/06/19 10:26:44;;;;;;;7.30;4.93;;;25.30;99.90;;;;;;5027267;28;20185;-78
2021/06/19 10:29:11;;;;;;;6.07;5.43;;;25.40;99.90;;;;;;5012619;28;20684;-78
2021/06/19 10:31:51;;;;;;;6.55;5.93;;;25.50;99.90;;;;;;5013389;28;20626;-77
2021/06/19 10:34:29;;;;;;;8.18;5.50;;;25.40;99.90;;;;;;5013530;28;20207;-81
2021/06/19 10:37:08;;;;;;;7.35;5.45;;;25.80;99.90;;;;;;5010561;28;20175;-83
2021/06/19 10:39:42;;;;;;;10.40;5.88;;;26.10;99.90;;;;;;5012672;28;20172;-81
2021/06/19 10:42:28;;;;;;;9.85;6.07;;;26.10;99.90;;;;;;5021275;28;20210;-82
2021/06/19 10:44:58;;;;;;;7.07;5.85;;;26.10;99.90;;;;;;5006830;28;20239;-82
2021/06/19 10:47:51;;;;;;;9.15;5.95;;;25.90;99.90;;;;;;5014725;28;20261;-82
2021/06/19 10:50:23;;;;;;;8.10;5.88;;;25.70;99.90;;;;;;5042836;28;20267;-83
2021/06/19 10:53:03;;;;;;;11.35;4.85;;;25.80;99.90;;;;;;5012603;28;20638;-82
2021/06/19 10:55:29;;;;;;;6.55;5.00;;;26.10;99.90;;;;;;5013111;28;20172;-81
2021/06/19 10:58:00;;;;;;;5.85;5.00;;;26.40;99.90;;;;;;5026980;28;20633;-82
2021/06/19 11:00:56;;;;;;;6.13;4.90;;;26.70;99.90;;;;;;5017636;28;20617;-83
2021/06/19 11:03:40;;;;;;;6.25;5.20;;;26.80;99.90;;;;;;5008158;28;20210;-80
2021/06/19 11:06:27;;;;;;;9.50;5.18;;;26.70;99.90;;;;;;5012147;28;20527;-80
2021/06/19 11:09:07;;;;;;;6.45;5.63;;;26.90;99.90;;;;;;5011614;28;20218;-81
2021/06/19 11:12:08;;;;;;;5.30;4.80;;;26.90;99.90;;;;;;5012459;28;20187;-80
2021/06/19 11:17:21;;;;;;;4.82;4.15;;;27.50;99.90;;;;;;5014290;28;20187;-82
2021/06/19 11:20:02;;;;;;;15.35;5.47;;;27.80;99.90;;;;;;5016872;28;20625;-79
2021/06/19 11:23:02;;;;;;;4.05;3.75;;;28.30;99.90;;;;;;5015418;28;20675;-79
2021/06/19 11:25:50;;;;;;;5.57;4.15;;;28.80;99.90;;;;;;5024839;28;20259;-80
2021/06/19 11:28:19;;;;;;;3.75;3.45;;;29.40;99.90;;;;;;5025710;28;20703;-79
2021/06/19 11:30:56;;;;;;;4.38;3.83;;;29.90;99.90;;;;;;5032592;28;20200;-82
2021/06/19 11:33:23;;;;;;;6.95;4.70;;;30.30;99.90;;;;;;5014351;28;20263;-80
2021/06/19 11:35:53;;;;;;;4.70;4.40;;;29.70;99.90;;;;;;5016969;28;20169;-82
2021/06/19 11:38:20;;;;;;;8.80;5.15;;;29.10;99.90;;;;;;5016824;28;20504;-82
2021/06/19 11:40:47;;;;;;;7.53;4.28;;;28.60;99.90;;;;;;5016188;28;20578;-81
2021/06/19 11:43:14;;;;;;;5.95;4.63;;;28.20;99.90;;;;;;5017238;28;20574;-78
2021/06/19 11:45:41;;;;;;;4.30;3.83;;;27.50;99.90;;;;;;5021936;28;20173;-78
2021/06/19 11:48:18;;;;;;;8.15;4.57;;;26.90;99.90;;;;;;5016628;28;20204;-77
2021/06/19 11:50:45;;;;;;;6.72;4.60;;;26.30;99.90;;;;;;5015404;28;20218;-78
2021/06/19 11:53:33;;;;;;;6.43;4.60;;;26.10;99.90;;;;;;5018444;28;20173;-78
2021/06/19 11:56:12;;;;;;;5.85;5.30;;;25.80;99.90;;;;;;5016757;28;20259;-77
2021/06/19 11:58:58;;;;;;;7.47;5.15;;;25.80;99.90;;;;;;5015772;28;20192;-79
2021/06/19 12:01:33;;;;;;;5.43;4.97;;;25.90;99.90;;;;;;5015801;28;20244;-79
2021/06/19 12:04:03;;;;;;;5.70;5.20;;;26.40;99.90;;;;;;5016440;28;20214;-78
2021/06/19 12:06:42;;;;;;;6.25;5.30;;;27.20;99.90;;;;;;5015761;28;20175;-78
2021/06/19 12:09:16;;;;;;;6.72;5.63;;;27.70;99.90;;;;;;5015419;28;20172;-79
2021/06/19 12:11:43;;;;;;;5.75;5.25;;;27.70;99.90;;;;;;5015610;28;20565;-78
2021/06/19 12:14:24;;;;;;;6.85;4.90;;;27.70;99.90;;;;;;5013847;28;20185;-78
2021/06/19 12:16:54;;;;;;;6.10;5.57;;;27.70;99.90;;;;;;5015136;28;20157;-78
2021/06/19 12:19:22;;;;;;;6.13;5.57;;;27.30;99.90;;;;;;5044314;28;20234;-79
2021/06/19 12:21:49;;;;;;;6.18;5.63;;;27.00;99.90;;;;;;5014628;28;20283;-78
2021/06/19 12:24:26;;;;;;;8.35;5.18;;;26.90;99.90;;;;;;5012944;28;20185;-78
2021/06/19 12:27:06;;;;;;;7.15;6.15;;;26.90;99.90;;;;;;5014687;28;20206;-78
2021/06/19 12:29:42;;;;;;;5.95;5.53;;;26.80;99.90;;;;;;5013761;28;20528;-79
2021/06/19 12:32:26;;;;;;;9.20;5.72;;;26.70;99.90;;;;;;5028568;28;20176;-79
2021/06/19 12:34:55;;;;;;;6.82;5.82;;;26.70;99.90;;;;;;5028820;28;20589;-81
2021/06/19 12:37:26;;;;;;;6.55;5.13;;;27.00;99.90;;;;;;5010304;28;20254;-78
2021/06/19 12:39:52;;;;;;;5.97;5.38;;;27.40;99.90;;;;;;5013811;28;20192;-78
2021/06/19 12:42:35;;;;;;;6.13;5.57;;;27.50;99.90;;;;;;5014882;28;20235;-78
2021/06/19 12:45:16;;;;;;;5.40;4.90;;;27.80;99.90;;;;;;5014710;28;20171;-78
2021/06/19 12:47:44;;;;;;;5.00;4.60;;;28.20;99.90;;;;;;5029085;28;20172;-78
2021/06/19 12:50:15;;;;;;;6.00;5.15;;;28.50;99.90;;;;;;5013778;28;20184;-77
2021/06/19 12:53:03;;;;;;;5.20;4.80;;;28.70;99.90;;;;;;5014525;28;20530;-77
2021/06/19 12:55:33;;;;;;;9.02;4.90;;;29.10;99.90;;;;;;5014129;28;20188;-78
2021/06/19 12:58:18;;;;;;;7.50;4.82;;;28.70;99.90;;;;;;5013209;28;20165;-78